sensor_id;sensor_type;location;lat;lon;timestamp;pressure;altitude;pressure_sealevel;temperature;humidity
72525;BME280;60547;48.502;8.996;2023-05-25T00:00:07;98247.97;;;10.26;65.11
72525;BME280;60547;48.502;8.996;2023-05-25T00:02:35;98253.22;;;10.20;66.24
72525;BME280;60547;48.502;8.996;2023-05-25T00:05:00;98245.41;;;10.12;66.99
72525;BME280;60547;48.502;8.996;2023-05-25T00:07:27;98255.69;;;10.15;68.54
72525;BME280;60547;48.502;8.996;2023-05-25T00:09:52;98248.31;;;10.04;67.76
72525;BME280;60547;48.502;8.996;2023-05-25T00:12:18;98247.53;;;10.04;67.03
72525;BME280;60547;48.502;8.996;2023-05-25T00:14:44;98251.00;;;9.88;69.00
72525;BME280;60547;48.502;8.996;2023-05-25T00:17:09;98234.72;;;9.87;68.96
72525;BME280;60547;48.502;8.996;2023-05-25T00:19:36;98248.50;;;9.94;69.32
72525;BME280;60547;48.502;8.996;2023-05-25T00:22:02;98237.50;;;9.87;69.26
72525;BME280;60547;48.502;8.996;2023-05-25T00:24:28;98250.06;;;9.95;69.59
72525;BME280;60547;48.502;8.996;2023-05-25T00:26:55;98242.16;;;9.93;69.23
72525;BME280;60547;48.502;8.996;2023-05-25T00:29:21;98236.19;;;9.95;70.61
72525;BME280;60547;48.502;8.996;2023-05-25T00:31:47;98232.75;;;9.87;71.83
72525;BME280;60547;48.502;8.996;2023-05-25T00:34:14;98239.88;;;9.88;71.34
72525;BME280;60547;48.502;8.996;2023-05-25T00:36:39;98244.66;;;9.88;71.52
72525;BME280;60547;48.502;8.996;2023-05-25T00:39:07;98250.25;;;9.84;71.83
72525;BME280;60547;48.502;8.996;2023-05-25T00:41:35;98252.75;;;9.79;71.55
72525;BME280;60547;48.502;8.996;2023-05-25T00:44:06;98248.50;;;9.70;71.13
72525;BME280;60547;48.502;8.996;2023-05-25T00:46:33;98251.16;;;9.78;71.32
72525;BME280;60547;48.502;8.996;2023-05-25T00:48:59;98254.31;;;9.80;71.46
72525;BME280;60547;48.502;8.996;2023-05-25T00:51:26;98245.97;;;9.80;71.73
72525;BME280;60547;48.502;8.996;2023-05-25T00:53:51;98242.34;;;9.83;71.66
72525;BME280;60547;48.502;8.996;2023-05-25T00:56:20;98245.44;;;9.88;70.92
72525;BME280;60547;48.502;8.996;2023-05-25T00:58:50;98250.25;;;9.84;71.07
72525;BME280;60547;48.502;8.996;2023-05-25T01:01:19;98234.44;;;9.81;71.44
72525;BME280;60547;48.502;8.996;2023-05-25T01:03:48;98235.09;;;9.89;72.38
72525;BME280;60547;48.502;8.996;2023-05-25T01:06:19;98242.34;;;9.83;72.30
72525;BME280;60547;48.502;8.996;2023-05-25T01:08:51;98237.94;;;9.85;71.52
72525;BME280;60547;48.502;8.996;2023-05-25T01:11:25;98234.44;;;9.81;71.75
72525;BME280;60547;48.502;8.996;2023-05-25T01:13:52;98238.72;;;9.86;72.24
72525;BME280;60547;48.502;8.996;2023-05-25T01:16:21;98222.81;;;9.86;71.88
72525;BME280;60547;48.502;8.996;2023-05-25T01:18:50;98232.00;;;9.83;72.18
72525;BME280;60547;48.502;8.996;2023-05-25T01:23:59;98234.25;;;9.92;72.14
72525;BME280;60547;48.502;8.996;2023-05-25T01:26:31;98239.88;;;9.88;71.58
72525;BME280;60547;48.502;8.996;2023-05-25T01:29:00;98227.59;;;9.86;72.36
72525;BME280;60547;48.502;8.996;2023-05-25T01:31:27;98230.94;;;9.77;72.32
72525;BME280;60547;48.502;8.996;2023-05-25T01:33:53;98238.00;;;9.82;72.35
72525;BME280;60547;48.502;8.996;2023-05-25T01:36:20;98224.72;;;9.69;72.59
72525;BME280;60547;48.502;8.996;2023-05-25T01:38:45;98231.47;;;9.68;73.71
72525;BME280;60547;48.502;8.996;2023-05-25T01:41:11;98234.44;;;9.58;73.91
72525;BME280;60547;48.502;8.996;2023-05-25T01:43:36;98229.78;;;9.51;74.40
72525;BME280;60547;48.502;8.996;2023-05-25T01:46:23;98231.03;;;9.47;74.00
72525;BME280;60547;48.502;8.996;2023-05-25T01:48:59;98235.84;;;9.43;74.38
72525;BME280;60547;48.502;8.996;2023-05-25T01:51:38;98235.56;;;9.37;75.30
72525;BME280;60547;48.502;8.996;2023-05-25T01:54:09;98235.59;;;9.33;75.74
72525;BME280;60547;48.502;8.996;2023-05-25T01:56:37;98235.97;;;9.35;75.73
72525;BME280;60547;48.502;8.996;2023-05-25T01:59:04;98236.75;;;9.36;75.83
72525;BME280;60547;48.502;8.996;2023-05-25T02:01:33;98234.03;;;9.32;75.80
72525;BME280;60547;48.502;8.996;2023-05-25T02:04:01;98237.22;;;9.31;76.39
72525;BME280;60547;48.502;8.996;2023-05-25T02:06:26;98228.69;;;9.18;76.63
72525;BME280;60547;48.502;8.996;2023-05-25T02:08:52;98225.06;;;9.21;76.32
72525;BME280;60547;48.502;8.996;2023-05-25T02:11:17;98226.66;;;9.22;76.27
72525;BME280;60547;48.502;8.996;2023-05-25T02:13:43;98232.56;;;9.24;76.11
72525;BME280;60547;48.502;8.996;2023-05-25T02:16:08;98229.78;;;9.24;76.44
72525;BME280;60547;48.502;8.996;2023-05-25T02:18:34;98224.34;;;9.17;76.94
72525;BME280;60547;48.502;8.996;2023-05-25T02:21:00;98220.38;;;9.18;76.27
72525;BME280;60547;48.502;8.996;2023-05-25T02:23:25;98225.06;;;9.21;77.39
72525;BME280;60547;48.502;8.996;2023-05-25T02:25:51;98210.47;;;9.17;76.65
72525;BME280;60547;48.502;8.996;2023-05-25T02:28:16;98211.31;;;9.14;77.26
72525;BME280;60547;48.502;8.996;2023-05-25T02:30:42;98220.38;;;9.18;76.46
72525;BME280;60547;48.502;8.996;2023-05-25T02:33:07;98216.44;;;9.16;76.75
72525;BME280;60547;48.502;8.996;2023-05-25T02:35:33;98228.28;;;9.20;76.09
72525;BME280;60547;48.502;8.996;2023-05-25T02:37:58;98223.56;;;9.17;76.48
72525;BME280;60547;48.502;8.996;2023-05-25T02:40:24;98223.50;;;9.20;76.64
72525;BME280;60547;48.502;8.996;2023-05-25T02:42:49;98226.75;;;9.15;77.24
72525;BME280;60547;48.502;8.996;2023-05-25T02:45:15;98226.03;;;9.11;76.70
72525;BME280;60547;48.502;8.996;2023-05-25T02:47:41;98222.56;;;9.03;77.14
72525;BME280;60547;48.502;8.996;2023-05-25T02:50:06;98222.97;;;9.02;77.73
72525;BME280;60547;48.502;8.996;2023-05-25T02:52:32;98230.09;;;9.03;78.43
72525;BME280;60547;48.502;8.996;2023-05-25T02:54:57;98225.03;;;8.98;78.13
72525;BME280;60547;48.502;8.996;2023-05-25T02:57:23;98219.06;;;8.99;77.85
72525;BME280;60547;48.502;8.996;2023-05-25T02:59:49;98219.41;;;9.01;77.88
72525;BME280;60547;48.502;8.996;2023-05-25T03:02:15;98221.88;;;8.96;77.54
72525;BME280;60547;48.502;8.996;2023-05-25T03:04:45;98221.50;;;8.94;77.83
72525;BME280;60547;48.502;8.996;2023-05-25T03:07:11;98231.41;;;8.95;77.79
72525;BME280;60547;48.502;8.996;2023-05-25T03:09:38;98217.56;;;8.91;77.51
72525;BME280;60547;48.502;8.996;2023-05-25T03:12:04;98225.59;;;8.86;78.05
72525;BME280;60547;48.502;8.996;2023-05-25T03:14:29;98230.34;;;8.85;77.83
72525;BME280;60547;48.502;8.996;2023-05-25T03:16:55;98235.94;;;8.82;77.18
72525;BME280;60547;48.502;8.996;2023-05-25T03:19:20;98237.50;;;8.83;77.23
72525;BME280;60547;48.502;8.996;2023-05-25T03:21:46;98233.16;;;8.82;78.27
72525;BME280;60547;48.502;8.996;2023-05-25T03:24:11;98235.25;;;8.74;78.53
72525;BME280;60547;48.502;8.996;2023-05-25T03:26:37;98236.88;;;8.71;79.03
72525;BME280;60547;48.502;8.996;2023-05-25T03:29:03;98242.03;;;8.69;78.94
72525;BME280;60547;48.502;8.996;2023-05-25T03:31:31;98234.56;;;8.66;79.59
72525;BME280;60547;48.502;8.996;2023-05-25T03:33:57;98234.66;;;8.59;79.75
72525;BME280;60547;48.502;8.996;2023-05-25T03:36:22;98233.44;;;8.60;79.77
72525;BME280;60547;48.502;8.996;2023-05-25T03:38:52;98234.28;;;8.57;79.71
72525;BME280;60547;48.502;8.996;2023-05-25T03:41:17;98233.91;;;8.55;79.74
72525;BME280;60547;48.502;8.996;2023-05-25T03:43:43;98232.75;;;8.53;79.80
72525;BME280;60547;48.502;8.996;2023-05-25T03:46:08;98232.38;;;8.51;79.76
72525;BME280;60547;48.502;8.996;2023-05-25T03:48:36;98237.53;;;8.49;79.90
72525;BME280;60547;48.502;8.996;2023-05-25T03:51:01;98235.22;;;8.44;80.32
72525;BME280;60547;48.502;8.996;2023-05-25T03:53:27;98234.41;;;8.47;79.76
72525;BME280;60547;48.502;8.996;2023-05-25T03:55:52;98235.66;;;8.42;79.82
72525;BME280;60547;48.502;8.996;2023-05-25T03:58:18;98244.41;;;8.37;79.69
72525;BME280;60547;48.502;8.996;2023-05-25T04:00:43;98248.38;;;8.36;79.72
72525;BME280;60547;48.502;8.996;2023-05-25T04:03:09;98241.31;;;8.28;79.03
72525;BME280;60547;48.502;8.996;2023-05-25T04:05:35;98242.06;;;8.32;80.20
72525;BME280;60547;48.502;8.996;2023-05-25T04:08:01;98248.84;;;8.27;79.88
72525;BME280;60547;48.502;8.996;2023-05-25T04:10:27;98248.81;;;8.31;79.60
72525;BME280;60547;48.502;8.996;2023-05-25T04:12:53;98243.22;;;8.38;79.29
72525;BME280;60547;48.502;8.996;2023-05-25T04:15:21;98250.72;;;8.41;79.55
72525;BME280;60547;48.502;8.996;2023-05-25T04:17:47;98246.03;;;8.34;79.79
72525;BME280;60547;48.502;8.996;2023-05-25T04:20:12;98246.00;;;8.38;80.58
72525;BME280;60547;48.502;8.996;2023-05-25T04:22:38;98250.38;;;8.32;80.56
72525;BME280;60547;48.502;8.996;2023-05-25T04:25:06;98256.72;;;8.32;80.64
72525;BME280;60547;48.502;8.996;2023-05-25T04:27:32;98246.03;;;8.34;80.69
72525;BME280;60547;48.502;8.996;2023-05-25T04:29:58;98256.66;;;8.39;80.37
72525;BME280;60547;48.502;8.996;2023-05-25T04:32:23;98252.38;;;8.35;80.08
72525;BME280;60547;48.502;8.996;2023-05-25T04:34:49;98249.19;;;8.36;80.37
72525;BME280;60547;48.502;8.996;2023-05-25T04:37:15;98256.22;;;8.45;79.67
72525;BME280;60547;48.502;8.996;2023-05-25T04:39:41;98259.44;;;8.39;80.27
72525;BME280;60547;48.502;8.996;2023-05-25T04:42:07;98253.09;;;8.39;80.88
72525;BME280;60547;48.502;8.996;2023-05-25T04:44:32;98258.63;;;8.43;80.59
72525;BME280;60547;48.502;8.996;2023-05-25T04:46:58;98255.09;;;8.38;80.94
72525;BME280;60547;48.502;8.996;2023-05-25T04:49:24;98254.28;;;8.41;81.79
72525;BME280;60547;48.502;8.996;2023-05-25T04:51:51;98268.84;;;8.49;81.31
72525;BME280;60547;48.502;8.996;2023-05-25T04:54:16;98270.03;;;8.48;81.00
72525;BME280;60547;48.502;8.996;2023-05-25T04:56:42;98272.78;;;8.52;81.86
72525;BME280;60547;48.502;8.996;2023-05-25T04:59:08;98267.19;;;8.55;81.48
72525;BME280;60547;48.502;8.996;2023-05-25T05:01:34;98272.22;;;8.64;81.25
72525;BME280;60547;48.502;8.996;2023-05-25T05:04:05;98275.63;;;8.79;81.26
72525;BME280;60547;48.502;8.996;2023-05-25T05:06:33;98280.25;;;8.89;80.83
72525;BME280;60547;48.502;8.996;2023-05-25T05:08:59;98279.00;;;8.93;80.50
72525;BME280;60547;48.502;8.996;2023-05-25T05:11:26;98273.44;;;8.93;81.10
72525;BME280;60547;48.502;8.996;2023-05-25T05:13:53;98280.16;;;8.96;80.90
72525;BME280;60547;48.502;8.996;2023-05-25T05:16:18;98283.69;;;9.00;80.91
72525;BME280;60547;48.502;8.996;2023-05-25T05:18:44;98283.94;;;9.09;80.46
72525;BME280;60547;48.502;8.996;2023-05-25T05:21:09;98279.88;;;9.17;80.57
72525;BME280;60547;48.502;8.996;2023-05-25T05:23:35;98292.81;;;9.27;80.01
72525;BME280;60547;48.502;8.996;2023-05-25T05:26:01;98291.66;;;9.25;79.85
72525;BME280;60547;48.502;8.996;2023-05-25T05:28:29;98301.78;;;9.38;79.23
72525;BME280;60547;48.502;8.996;2023-05-25T05:30:55;98301.84;;;9.35;79.00
72525;BME280;60547;48.502;8.996;2023-05-25T05:33:21;98304.09;;;9.44;77.19
72525;BME280;60547;48.502;8.996;2023-05-25T05:35:49;98317.13;;;9.47;77.61
72525;BME280;60547;48.502;8.996;2023-05-25T05:38:14;98319.03;;;9.53;78.10
72525;BME280;60547;48.502;8.996;2023-05-25T05:40:40;98311.47;;;9.54;78.42
72525;BME280;60547;48.502;8.996;2023-05-25T05:43:11;98314.47;;;9.66;78.00
72525;BME280;60547;48.502;8.996;2023-05-25T05:45:37;98310.78;;;9.73;76.75
72525;BME280;60547;48.502;8.996;2023-05-25T05:48:02;98315.09;;;9.78;77.35
72525;BME280;60547;48.502;8.996;2023-05-25T05:50:35;98317.69;;;9.88;77.06
72525;BME280;60547;48.502;8.996;2023-05-25T05:53:00;98315.09;;;10.01;75.79
72525;BME280;60547;48.502;8.996;2023-05-25T05:55:26;98304.59;;;10.12;75.46
72525;BME280;60547;48.502;8.996;2023-05-25T05:57:51;98308.31;;;10.29;75.11
72525;BME280;60547;48.502;8.996;2023-05-25T06:00:17;98313.72;;;10.36;75.57
72525;BME280;60547;48.502;8.996;2023-05-25T06:02:43;98316.03;;;10.41;76.08
72525;BME280;60547;48.502;8.996;2023-05-25T06:05:08;98316.28;;;10.27;74.44
72525;BME280;60547;48.502;8.996;2023-05-25T06:07:34;98318.94;;;10.34;75.06
72525;BME280;60547;48.502;8.996;2023-05-25T06:10:00;98329.81;;;10.48;74.79
72525;BME280;60547;48.502;8.996;2023-05-25T06:12:26;98324.25;;;10.48;75.67
72525;BME280;60547;48.502;8.996;2023-05-25T06:14:51;98320.53;;;10.55;72.93
72525;BME280;60547;48.502;8.996;2023-05-25T06:17:17;98329.06;;;10.67;72.29
72525;BME280;60547;48.502;8.996;2023-05-25T06:19:43;98327.56;;;10.83;71.99
72525;BME280;60547;48.502;8.996;2023-05-25T06:22:09;98332.63;;;10.88;69.91
72525;BME280;60547;48.502;8.996;2023-05-25T06:24:34;98318.50;;;10.98;71.16
72525;BME280;60547;48.502;8.996;2023-05-25T06:27:00;98317.13;;;11.07;71.18
72525;BME280;60547;48.502;8.996;2023-05-25T06:29:27;98314.78;;;11.05;71.55
72525;BME280;60547;48.502;8.996;2023-05-25T06:31:53;98331.34;;;11.12;72.40
72525;BME280;60547;48.502;8.996;2023-05-25T06:34:19;98322.84;;;11.19;72.08
72525;BME280;60547;48.502;8.996;2023-05-25T06:36:44;98317.16;;;11.43;70.71
72525;BME280;60547;48.502;8.996;2023-05-25T06:39:11;98313.84;;;11.48;70.01
72525;BME280;60547;48.502;8.996;2023-05-25T06:41:37;98317.06;;;11.46;72.19
72525;BME280;60547;48.502;8.996;2023-05-25T06:44:03;98316.03;;;11.56;70.54
72525;BME280;60547;48.502;8.996;2023-05-25T06:46:28;98318.75;;;11.60;70.47
72525;BME280;60547;48.502;8.996;2023-05-25T06:48:54;98316.06;;;11.73;69.65
72525;BME280;60547;48.502;8.996;2023-05-25T06:51:20;98322.63;;;11.82;67.90
72525;BME280;60547;48.502;8.996;2023-05-25T06:53:46;98324.22;;;11.83;67.48
72525;BME280;60547;48.502;8.996;2023-05-25T06:56:11;98314.63;;;11.84;69.93
72525;BME280;60547;48.502;8.996;2023-05-25T06:58:36;98329.53;;;11.94;68.37
72525;BME280;60547;48.502;8.996;2023-05-25T07:01:02;98333.53;;;12.09;70.12
72525;BME280;60547;48.502;8.996;2023-05-25T07:03:28;98338.94;;;12.16;68.68
72525;BME280;60547;48.502;8.996;2023-05-25T07:05:53;98330.06;;;12.21;70.22
72525;BME280;60547;48.502;8.996;2023-05-25T07:08:19;98340.88;;;12.19;71.26
72525;BME280;60547;48.502;8.996;2023-05-25T07:10:44;98340.59;;;12.30;68.51
72525;BME280;60547;48.502;8.996;2023-05-25T07:13:10;98334.84;;;12.21;67.77
72525;BME280;60547;48.502;8.996;2023-05-25T07:15:35;98336.69;;;12.27;68.21
72525;BME280;60547;48.502;8.996;2023-05-25T07:18:01;98339.91;;;12.26;67.19
72525;BME280;60547;48.502;8.996;2023-05-25T07:20:26;98336.75;;;12.24;70.12
72525;BME280;60547;48.502;8.996;2023-05-25T07:22:52;98340.50;;;12.34;69.35
72525;BME280;60547;48.502;8.996;2023-05-25T07:25:18;98335.16;;;12.55;70.40
72525;BME280;60547;48.502;8.996;2023-05-25T07:27:47;98335.16;;;12.55;69.92
72525;BME280;60547;48.502;8.996;2023-05-25T07:30:13;98333.25;;;12.52;67.93
72525;BME280;60547;48.502;8.996;2023-05-25T07:32:38;98336.63;;;12.60;72.01
72525;BME280;60547;48.502;8.996;2023-05-25T07:35:05;98344.19;;;12.76;68.49
72525;BME280;60547;48.502;8.996;2023-05-25T07:37:31;98338.44;;;12.67;69.02
72525;BME280;60547;48.502;8.996;2023-05-25T07:39:56;98345.56;;;12.84;69.77
72525;BME280;60547;48.502;8.996;2023-05-25T07:42:22;98352.72;;;12.85;67.74
72525;BME280;60547;48.502;8.996;2023-05-25T07:44:47;98354.28;;;12.86;68.90
72525;BME280;60547;48.502;8.996;2023-05-25T07:47:13;98355.34;;;13.05;67.86
72525;BME280;60547;48.502;8.996;2023-05-25T07:49:38;98366.31;;;13.12;68.43
72525;BME280;60547;48.502;8.996;2023-05-25T07:52:04;98357.13;;;13.28;68.97
72525;BME280;60547;48.502;8.996;2023-05-25T07:54:31;98356.81;;;13.38;65.49
72525;BME280;60547;48.502;8.996;2023-05-25T07:56:56;98349.22;;;13.51;64.99
72525;BME280;60547;48.502;8.996;2023-05-25T07:59:22;98362.34;;;13.93;65.64
72525;BME280;60547;48.502;8.996;2023-05-25T08:01:47;98360.09;;;13.75;64.46
72525;BME280;60547;48.502;8.996;2023-05-25T08:04:13;98342.66;;;13.83;65.07
72525;BME280;60547;48.502;8.996;2023-05-25T08:06:38;98350.03;;;13.90;63.52
72525;BME280;60547;48.502;8.996;2023-05-25T08:09:04;98352.16;;;13.99;64.46
72525;BME280;60547;48.502;8.996;2023-05-25T08:11:30;98351.03;;;14.09;62.64
72525;BME280;60547;48.502;8.996;2023-05-25T08:13:56;98354.50;;;14.13;63.23
72525;BME280;60547;48.502;8.996;2023-05-25T08:16:21;98362.69;;;14.07;62.95
72525;BME280;60547;48.502;8.996;2023-05-25T08:18:47;98351.94;;;14.06;63.36
72525;BME280;60547;48.502;8.996;2023-05-25T08:21:13;98349.59;;;13.92;64.49
72525;BME280;60547;48.502;8.996;2023-05-25T08:23:39;98353.63;;;14.03;63.49
72525;BME280;60547;48.502;8.996;2023-05-25T08:26:07;98353.38;;;13.98;63.90
72525;BME280;60547;48.502;8.996;2023-05-25T08:28:33;98362.09;;;14.25;67.42
72525;BME280;60547;48.502;8.996;2023-05-25T08:30:58;98357.16;;;14.29;64.17
72525;BME280;60547;48.502;8.996;2023-05-25T08:33:24;98364.84;;;14.63;66.06
72525;BME280;60547;48.502;8.996;2023-05-25T08:35:49;98362.16;;;14.60;62.63
72525;BME280;60547;48.502;8.996;2023-05-25T08:38:17;98359.88;;;14.80;61.97
72525;BME280;60547;48.502;8.996;2023-05-25T08:40:44;98363.84;;;14.92;62.59
72525;BME280;60547;48.502;8.996;2023-05-25T08:43:10;98363.97;;;14.88;63.23
72525;BME280;60547;48.502;8.996;2023-05-25T08:45:35;98348.06;;;14.85;63.11
72525;BME280;60547;48.502;8.996;2023-05-25T08:48:03;98348.56;;;14.71;63.21
72525;BME280;60547;48.502;8.996;2023-05-25T08:50:33;98353.94;;;14.78;64.98
72525;BME280;60547;48.502;8.996;2023-05-25T08:53:01;98355.03;;;14.80;62.84
72525;BME280;60547;48.502;8.996;2023-05-25T08:55:29;98361.91;;;15.01;64.92
72525;BME280;60547;48.502;8.996;2023-05-25T08:58:22;98354.19;;;14.71;64.04
72525;BME280;60547;48.502;8.996;2023-05-25T09:00:57;98370.25;;;14.92;63.54
72525;BME280;60547;48.502;8.996;2023-05-25T09:03:23;98362.56;;;15.05;64.88
72525;BME280;60547;48.502;8.996;2023-05-25T09:05:49;98364.31;;;15.34;64.80
72525;BME280;60547;48.502;8.996;2023-05-25T09:08:16;98355.78;;;15.59;62.57
72525;BME280;60547;48.502;8.996;2023-05-25T09:10:41;98351.78;;;15.69;60.89
72525;BME280;60547;48.502;8.996;2023-05-25T09:13:07;98354.91;;;15.71;62.57
72525;BME280;60547;48.502;8.996;2023-05-25T09:15:33;98356.56;;;15.91;63.79
72525;BME280;60547;48.502;8.996;2023-05-25T09:17:59;98358.78;;;16.05;61.56
72525;BME280;60547;48.502;8.996;2023-05-25T09:20:25;98358.34;;;16.06;60.33
72525;BME280;60547;48.502;8.996;2023-05-25T09:22:58;98362.22;;;16.00;60.80
72525;BME280;60547;48.502;8.996;2023-05-25T09:25:25;98361.56;;;15.96;60.10
72525;BME280;60547;48.502;8.996;2023-05-25T09:27:52;98363.72;;;15.92;60.62
72525;BME280;60547;48.502;8.996;2023-05-25T09:30:18;98359.84;;;15.98;60.59
72525;BME280;60547;48.502;8.996;2023-05-25T09:32:44;98360.16;;;15.91;61.99
72525;BME280;60547;48.502;8.996;2023-05-25T09:35:11;98372.50;;;16.03;61.33
72525;BME280;60547;48.502;8.996;2023-05-25T09:37:37;98371.63;;;16.15;63.28
72525;BME280;60547;48.502;8.996;2023-05-25T09:40:04;98368.88;;;16.33;61.46
72525;BME280;60547;48.502;8.996;2023-05-25T09:42:31;98362.81;;;16.44;61.22
72525;BME280;60547;48.502;8.996;2023-05-25T09:44:58;98363.63;;;16.63;61.88
72525;BME280;60547;48.502;8.996;2023-05-25T09:47:25;98361.09;;;16.46;61.18
72525;BME280;60547;48.502;8.996;2023-05-25T09:49:51;98359.50;;;16.27;61.11
72525;BME280;60547;48.502;8.996;2023-05-25T09:52:17;98360.09;;;16.22;60.54
72525;BME280;60547;48.502;8.996;2023-05-25T09:54:50;98366.06;;;16.33;61.06
72525;BME280;60547;48.502;8.996;2023-05-25T09:57:17;98358.78;;;16.63;60.83
72525;BME280;60547;48.502;8.996;2023-05-25T09:59:43;98357.28;;;16.81;60.01
72525;BME280;60547;48.502;8.996;2023-05-25T10:02:10;98350.09;;;16.79;59.45
72525;BME280;60547;48.502;8.996;2023-05-25T10:04:35;98365.19;;;16.64;59.96
72525;BME280;60547;48.502;8.996;2023-05-25T10:07:02;98361.16;;;16.74;59.43
72525;BME280;60547;48.502;8.996;2023-05-25T10:09:28;98355.38;;;16.68;59.55
72525;BME280;60547;48.502;8.996;2023-05-25T10:11:56;98366.41;;;16.54;60.09
72525;BME280;60547;48.502;8.996;2023-05-25T10:14:25;98366.31;;;16.66;60.12
72525;BME280;60547;48.502;8.996;2023-05-25T10:16:52;98379.59;;;16.75;59.40
72525;BME280;60547;48.502;8.996;2023-05-25T10:19:22;98368.84;;;16.92;59.73
72525;BME280;60547;48.502;8.996;2023-05-25T10:22:00;98377.75;;;17.18;58.87
72525;BME280;60547;48.502;8.996;2023-05-25T10:24:30;98381.66;;;17.20;58.00
72525;BME280;60547;48.502;8.996;2023-05-25T10:26:59;98366.44;;;17.54;62.03
72525;BME280;60547;48.502;8.996;2023-05-25T10:29:27;98370.31;;;17.75;57.68
72525;BME280;60547;48.502;8.996;2023-05-25T10:31:54;98374.88;;;17.54;57.17
72525;BME280;60547;48.502;8.996;2023-05-25T10:34:21;98371.44;;;17.59;57.37
72525;BME280;60547;48.502;8.996;2023-05-25T10:36:47;98375.03;;;17.69;60.44
72525;BME280;60547;48.502;8.996;2023-05-25T10:39:14;98371.13;;;17.48;58.36
72525;BME280;60547;48.502;8.996;2023-05-25T10:41:40;98374.25;;;17.50;58.42
72525;BME280;60547;48.502;8.996;2023-05-25T10:44:07;98370.19;;;17.51;58.02
72525;BME280;60547;48.502;8.996;2023-05-25T10:46:33;98373.31;;;17.71;58.43
72525;BME280;60547;48.502;8.996;2023-05-25T10:48:58;98376.09;;;17.62;57.39
72525;BME280;60547;48.502;8.996;2023-05-25T10:51:39;98365.16;;;17.73;57.16
72525;BME280;60547;48.502;8.996;2023-05-25T10:54:05;98373.38;;;17.95;62.02
72525;BME280;60547;48.502;8.996;2023-05-25T10:56:31;98374.97;;;17.87;57.02
72525;BME280;60547;48.502;8.996;2023-05-25T10:58:57;98372.75;;;18.00;56.54
72525;BME280;60547;48.502;8.996;2023-05-25T11:01:23;98369.44;;;18.02;58.57
72525;BME280;60547;48.502;8.996;2023-05-25T11:03:53;98376.91;;;18.14;57.07
72525;BME280;60547;48.502;8.996;2023-05-25T11:06:21;98377.25;;;18.07;57.08
72525;BME280;60547;48.502;8.996;2023-05-25T11:08:53;98364.06;;;18.13;61.43
72525;BME280;60547;48.502;8.996;2023-05-25T11:11:20;98378.19;;;18.04;57.93
72525;BME280;60547;48.502;8.996;2023-05-25T11:13:47;98362.00;;;17.81;58.60
72525;BME280;60547;48.502;8.996;2023-05-25T11:16:20;98374.44;;;18.07;57.88
72525;BME280;60547;48.502;8.996;2023-05-25T11:18:54;98378.03;;;18.07;58.86
72525;BME280;60547;48.502;8.996;2023-05-25T11:26:24;98368.16;;;18.12;56.84
72525;BME280;60547;48.502;8.996;2023-05-25T11:28:51;98363.63;;;18.05;56.58
72525;BME280;60547;48.502;8.996;2023-05-25T11:31:26;98370.06;;;18.06;56.73
72525;BME280;60547;48.502;8.996;2023-05-25T11:33:58;98356.63;;;18.01;57.43
72525;BME280;60547;48.502;8.996;2023-05-25T11:36:27;98354.41;;;18.05;58.30
72525;BME280;60547;48.502;8.996;2023-05-25T11:39:03;98355.22;;;18.29;59.24
72525;BME280;60547;48.502;8.996;2023-05-25T11:41:29;98357.41;;;18.34;58.98
72525;BME280;60547;48.502;8.996;2023-05-25T11:44:03;98355.88;;;18.24;59.47
72525;BME280;60547;48.502;8.996;2023-05-25T11:46:31;98362.97;;;18.44;59.57
72525;BME280;60547;48.502;8.996;2023-05-25T11:48:58;98358.59;;;18.43;56.32
72525;BME280;60547;48.502;8.996;2023-05-25T11:51:27;98351.47;;;18.56;59.25
72525;BME280;60547;48.502;8.996;2023-05-25T11:53:53;98354.94;;;18.51;56.46
72525;BME280;60547;48.502;8.996;2023-05-25T11:56:19;98354.34;;;18.47;58.90
72525;BME280;60547;48.502;8.996;2023-05-25T11:58:48;98357.66;;;18.46;56.41
72525;BME280;60547;48.502;8.996;2023-05-25T12:01:16;98361.34;;;18.61;60.37
72525;BME280;60547;48.502;8.996;2023-05-25T12:03:46;98359.31;;;18.52;56.74
72525;BME280;60547;48.502;8.996;2023-05-25T12:06:23;98355.91;;;18.48;56.89
72525;BME280;60547;48.502;8.996;2023-05-25T12:08:49;98351.28;;;18.60;56.53
72525;BME280;60547;48.502;8.996;2023-05-25T12:11:15;98348.56;;;18.75;56.76
72525;BME280;60547;48.502;8.996;2023-05-25T12:13:41;98345.41;;;18.96;56.43
72525;BME280;60547;48.502;8.996;2023-05-25T12:16:06;98352.00;;;18.93;56.71
72525;BME280;60547;48.502;8.996;2023-05-25T12:18:32;98343.84;;;18.95;55.06
72525;BME280;60547;48.502;8.996;2023-05-25T12:20:57;98351.72;;;18.91;56.16
72525;BME280;60547;48.502;8.996;2023-05-25T12:23:23;98352.00;;;18.93;56.08
72525;BME280;60547;48.502;8.996;2023-05-25T12:26:05;98350.59;;;19.13;58.91
72525;BME280;60547;48.502;8.996;2023-05-25T12:28:31;98352.81;;;19.09;56.15
72525;BME280;60547;48.502;8.996;2023-05-25T12:30:56;98354.16;;;18.98;56.89
72525;BME280;60547;48.502;8.996;2023-05-25T12:33:22;98357.22;;;19.10;60.41
72525;BME280;60547;48.502;8.996;2023-05-25T12:35:49;98354.59;;;19.21;56.10
72525;BME280;60547;48.502;8.996;2023-05-25T12:38:18;98355.78;;;19.44;56.48
72525;BME280;60547;48.502;8.996;2023-05-25T12:40:45;98366.06;;;19.56;56.08
72525;BME280;60547;48.502;8.996;2023-05-25T12:43:11;98361.81;;;19.36;55.80
72525;BME280;60547;48.502;8.996;2023-05-25T12:45:39;98365.81;;;19.30;53.65
72525;BME280;60547;48.502;8.996;2023-05-25T12:48:06;98364.47;;;19.40;53.67
72525;BME280;60547;48.502;8.996;2023-05-25T12:50:31;98360.13;;;19.15;54.00
72525;BME280;60547;48.502;8.996;2023-05-25T12:53:01;98358.03;;;19.40;54.23
72525;BME280;60547;48.502;8.996;2023-05-25T12:55:29;98363.22;;;19.56;55.04
72525;BME280;60547;48.502;8.996;2023-05-25T13:00:26;98359.78;;;19.37;52.71
72525;BME280;60547;48.502;8.996;2023-05-25T13:02:52;98355.50;;;19.42;53.49
72525;BME280;60547;48.502;8.996;2023-05-25T13:05:22;98364.38;;;19.49;53.31
72525;BME280;60547;48.502;8.996;2023-05-25T13:07:49;98357.53;;;19.41;53.12
72525;BME280;60547;48.502;8.996;2023-05-25T13:10:16;98358.03;;;19.40;53.79
72525;BME280;60547;48.502;8.996;2023-05-25T13:12:43;98355.34;;;19.75;58.55